METAR Data
IDs: Format: Raw Decoded Include TAF

Data at: 0715 UTC 23 Feb 2019

PAHO 230653Z AUTO 05006KT 10SM CLR M03/M13 A3035 RMK AO2 SLP280 T10331128 TSNO $
PAHO 230553Z 03004KT 10SM CLR M03/M12 A3033 RMK AO2 SLP273 60000 T10331122 10006 21039 51009 $
PAHO 230453Z 06006KT 10SM CLR M02/M12 A3033 RMK AO2 SLP271 T10221122 $
PAHO 230353Z 06006KT 10SM CLR M02/M12 A3031 RMK AO2 SLP266 T10221117 $
PAHO 230253Z 04006KT 10SM CLR M02/M11 A3031 RMK AO2 SLP263 60000 T10171111 53007 $
PAHO 230153Z 06006KT 10SM CLR M01/M10 A3030 RMK AO2 SLP262 T10061100 $
PAHO 230053Z 06007KT 10SM CLR 00/M09 A3029 RMK AO2 UPB16E20RAB20E28 SLP258 P0000 T00001094 $
PAHO 222353Z 07009KT 10SM CLR 00/M09 A3028 RMK AO2 SNB20E29 SLP256 P0000 60000 T00001094 10000 21050 58002 $
PAHO 222253Z 08012KT 10SM CLR M01/M09 A3029 RMK AO2 SLP257 T10061094 $
PAHO 222153Z 09006KT 10SM CLR M01/M08 A3029 RMK AO2 SLP259 T10061083 $
PAHO 222053Z 08003KT 10SM CLR M01/M09 A3029 RMK AO2 SLP258 T10111089 51023 $
PAHO 221953Z 00000KT 9SM CLR M02/M09 A3027 RMK AO2 SLP252 T10171094 $
PAHO 221853Z 05003KT 10SM CLR M03/M09 A3024 RMK AO2 SLP243 T10331094 $
PAHO 221753Z 08008KT 10SM CLR M04/M11 A3022 RMK AO2 SLP235 T10441106 11006 21050 53017 $
PAHO 221653Z 06008KT 10SM CLR M03/M10 A3020 RMK AO2 SLP228 T10331100 $
PAHO 221553Z 06007KT 10SM CLR M02/M12 A3019 RMK AO2 SLP223 T10221122 $
PAHO 221453Z AUTO 04008KT 10SM CLR M02/M12 A3017 RMK AO2 SLP219 T10221122 53016 TSNO $
PAHO 221353Z AUTO 01011KT 10SM CLR M02/M12 A3016 RMK AO2 SLP214 T10171122 TSNO $
PAHO 221253Z AUTO 36012KT 10SM CLR M01/M12 A3014 RMK AO2 SLP207 T10111122 TSNO $
PAHO 221153Z AUTO VRB04KT 10SM CLR M02/M11 A3013 RMK AO2 SLP203 70001 T10171106 10000 21039 53019 TSNO $
PAHO 221053Z AUTO 00000KT 10SM CLR M04/M09 A3010 RMK AO2 SLP195 T10391089 TSNO $
PAHO 220953Z AUTO 07004KT 10SM CLR M02/M09 A3009 RMK AO2 SLP190 T10221094 TSNO $
PAHO 220853Z AUTO 00000KT 10SM CLR M02/M09 A3007 RMK AO2 SLP184 T10171094 400111078 53016 TSNO $
PAHO 220753Z AUTO VRB04KT 10SM CLR 00/M09 A3006 RMK AO2 PK WND 34026/0656 SLP179 T00001089 TSNO $
PAHO 220653Z AUTO 34014G24KT 10SM CLR 00/M08 A3003 RMK AO2 PK WND 33026/0632 SLP171 T00001083 TSNO $
PAHO 220553Z 33011G20KT 10SM CLR 00/M08 A3002 RMK AO2 SLP167 T00001078 10011 21044 51016 $
PAHO 220453Z VRB03KT 10SM CLR M02/M06 A3002 RMK AO2 SLP165 T10171061 $
PAHO 220353Z 00000KT 10SM CLR M03/M07 A3000 RMK AO2 SLP159 T10331067 $
PAHO 220253Z 03003KT 10SM CLR M01/M06 A2997 RMK AO2 SLP151 T10111061 51009 $
PAHO 220153Z 06003KT 10SM CLR M01/M07 A2997 RMK AO2 SLP149 T10061067 $
PAHO 220053Z 00000KT 10SM CLR 00/M07 A2996 RMK AO2 SLP147 T00001072 $
PAHO 212353Z 00000KT 10SM CLR M01/M07 A2995 RMK AO2 SLP142 T10061072 11006 21078 51016 $
PAHO 212253Z 00000KT 10SM CLR M01/M08 A2993 RMK AO2 SLP137 T10111078 $
PAHO 212153Z 00000KT 10SM CLR M02/M09 A2992 RMK AO2 SLP134 T10171089 $
PAHO 212053Z 00000KT 10SM CLR M02/M07 A2990 RMK AO2 SLP127 T10221072 51022 $
PAHO 211953Z 02003KT 10SM CLR M04/M06 A2988 RMK AO2 SLP121 T10441061 $